createdAt,value
2022-10-30T00:00:11.005Z,59.34
2022-10-30T00:02:43.951Z,59.01
2022-10-30T00:05:14.203Z,59.39
2022-10-30T00:07:44.422Z,59.12
2022-10-30T00:10:14.517Z,59.52
2022-10-30T00:12:45.154Z,60.01
2022-10-30T00:15:15.671Z,60.18
2022-10-30T00:18:04.935Z,60.40
2022-10-30T00:20:35.298Z,60.23
2022-10-30T00:23:05.499Z,60.36
2022-10-30T00:25:38.422Z,60.52
2022-10-30T00:28:10.403Z,60.73
2022-10-30T00:30:41.131Z,60.78
2022-10-30T00:33:11.404Z,60.46
2022-10-30T00:35:51.671Z,60.53
2022-10-30T00:38:21.979Z,60.53
2022-10-30T00:40:52.972Z,60.53
2022-10-30T00:43:41.657Z,60.40
2022-10-30T00:46:29.396Z,60.28
2022-10-30T00:49:08.756Z,60.36
2022-10-30T00:51:41.783Z,60.43
2022-10-30T00:54:12.818Z,60.49
2022-10-30T00:56:43.937Z,60.43
2022-10-30T00:59:19.506Z,60.47
2022-10-30T01:01:51.074Z,60.03
2022-10-30T01:04:27.396Z,60.26
2022-10-30T01:07:02.597Z,60.31
2022-10-30T01:09:33.257Z,60.31
2022-10-30T01:12:03.615Z,59.89
2022-10-30T01:14:36.797Z,60.34
2022-10-30T01:17:18.863Z,60.09
2022-10-30T01:20:25.951Z,60.33
2022-10-30T01:23:25.488Z,60.39
2022-10-30T01:26:17.685Z,60.49
2022-10-30T01:29:03.160Z,60.24
2022-10-30T01:31:55.039Z,60.39
2022-10-30T01:35:01.176Z,60.46
2022-10-30T01:37:49.146Z,60.47
2022-10-30T01:40:21.007Z,60.31
2022-10-30T01:42:57.093Z,60.20
2022-10-30T01:45:55.061Z,60.08
2022-10-30T01:48:37.277Z,59.68
2022-10-30T01:51:50.102Z,59.83
2022-10-30T01:55:02.224Z,59.43
2022-10-30T01:58:23.197Z,59.62
2022-10-30T02:01:00.093Z,59.06
2022-10-30T02:03:32.520Z,58.98
2022-10-30T02:06:03.626Z,59.07
2022-10-30T02:08:34.452Z,58.71
2022-10-30T02:11:05.239Z,58.91
2022-10-30T02:13:42.679Z,58.72
2022-10-30T02:16:13.442Z,58.54
2022-10-30T02:18:47.060Z,58.11
2022-10-30T02:21:18.133Z,57.45
2022-10-30T02:23:48.521Z,56.55
2022-10-30T02:26:18.781Z,57.38
2022-10-30T02:28:49.103Z,57.24
2022-10-30T02:31:21.721Z,57.22
2022-10-30T02:33:53.998Z,56.43
2022-10-30T02:36:24.317Z,56.87
2022-10-30T02:38:57.392Z,56.06
2022-10-30T02:41:27.779Z,55.92
2022-10-30T02:43:58.244Z,56.53
2022-10-30T02:46:28.521Z,56.65
2022-10-30T02:48:58.773Z,56.33
2022-10-30T02:51:30.728Z,55.83
2022-10-30T02:54:02.439Z,56.06
2022-10-30T02:56:34.872Z,55.92
2022-10-30T02:59:05.293Z,55.94
2022-10-30T03:01:35.648Z,55.05
2022-10-30T03:04:06.444Z,55.50
2022-10-30T03:06:37.884Z,54.82
2022-10-30T03:09:07.815Z,54.44
2022-10-30T03:11:38.525Z,54.88
2022-10-30T03:14:08.976Z,55.30
2022-10-30T03:16:40.781Z,55.43
2022-10-30T03:19:11.993Z,54.83
2022-10-30T03:21:42.260Z,54.64
2022-10-30T03:24:15.925Z,54.07
2022-10-30T03:26:49.105Z,54.09
2022-10-30T03:29:19.005Z,53.84
2022-10-30T03:31:49.753Z,54.61
2022-10-30T03:34:22.679Z,54.09
2022-10-30T03:36:53.430Z,53.72
2022-10-30T03:39:24.004Z,54.18
2022-10-30T03:41:54.344Z,52.95
2022-10-30T03:44:25.054Z,53.58
2022-10-30T03:46:55.215Z,54.00
2022-10-30T03:49:40.508Z,52.89
2022-10-30T03:52:15.755Z,52.25
2022-10-30T03:54:46.041Z,53.65
2022-10-30T03:57:19.844Z,54.17
2022-10-30T04:00:15.227Z,53.10
2022-10-30T04:02:54.127Z,53.64
2022-10-30T04:05:27.482Z,52.61
2022-10-30T04:08:02.375Z,52.76
2022-10-30T04:10:38.608Z,53.54
2022-10-30T04:13:14.817Z,53.01
2022-10-30T04:15:56.298Z,52.74
2022-10-30T04:18:28.897Z,52.87
2022-10-30T04:21:02.880Z,53.64
2022-10-30T04:23:34.542Z,54.27
2022-10-30T04:26:05.513Z,53.86
2022-10-30T04:28:40.233Z,53.52
2022-10-30T04:31:11.672Z,54.00
2022-10-30T04:33:42.068Z,52.46
2022-10-30T04:36:13.331Z,52.37
2022-10-30T04:38:43.714Z,52.47
2022-10-30T04:41:15.028Z,53.22
2022-10-30T04:43:54.638Z,53.62
2022-10-30T04:46:25.975Z,52.67
2022-10-30T04:49:00.625Z,53.31
2022-10-30T04:51:31.485Z,53.24
2022-10-30T04:54:02.035Z,52.80
2022-10-30T04:56:35.770Z,52.54
2022-10-30T04:59:07.443Z,52.53
2022-10-30T05:01:37.839Z,53.09
2022-10-30T05:04:10.345Z,52.44
2022-10-30T05:06:41.506Z,52.69
2022-10-30T05:09:12.502Z,53.30
2022-10-30T05:11:44.542Z,53.53
2022-10-30T05:14:15.429Z,53.16
2022-10-30T05:16:47.673Z,52.55
2022-10-30T05:19:19.222Z,52.21
2022-10-30T05:21:56.524Z,52.18
2022-10-30T05:24:27.488Z,52.46
2022-10-30T05:26:58.586Z,53.40
2022-10-30T05:29:29.777Z,53.40
2022-10-30T05:32:00.140Z,53.44
2022-10-30T05:34:42.434Z,53.52
2022-10-30T05:37:14.018Z,52.81
2022-10-30T05:39:45.393Z,52.44
2022-10-30T05:42:28.793Z,52.87
2022-10-30T05:45:02.418Z,53.73
2022-10-30T05:47:38.045Z,53.72
2022-10-30T05:50:10.639Z,52.36
2022-10-30T05:52:40.997Z,52.63
2022-10-30T05:55:12.881Z,53.19
2022-10-30T05:58:04.543Z,52.88
2022-10-30T06:00:38.888Z,52.35
2022-10-30T06:03:13.787Z,52.52
2022-10-30T06:05:48.282Z,52.60
2022-10-30T06:08:20.045Z,52.49
2022-10-30T06:10:52.988Z,52.28
2022-10-30T06:13:30.949Z,52.52
2022-10-30T06:16:21.762Z,53.15
2022-10-30T06:19:18.370Z,53.01
2022-10-30T06:21:53.521Z,51.89
2022-10-30T06:24:42.025Z,52.42
2022-10-30T06:27:26.888Z,51.81
2022-10-30T06:29:58.562Z,52.12
2022-10-30T06:32:29.927Z,51.81
2022-10-30T06:35:00.584Z,51.97
2022-10-30T06:37:31.233Z,52.42
2022-10-30T06:40:06.924Z,52.56
2022-10-30T06:42:57.483Z,52.17
2022-10-30T06:45:51.237Z,52.04
2022-10-30T06:48:22.245Z,52.23
2022-10-30T06:51:00.779Z,52.32
2022-10-30T06:53:33.804Z,51.85
2022-10-30T06:56:30.950Z,51.87
2022-10-30T06:59:18.618Z,52.10
2022-10-30T07:01:59.157Z,51.92
2022-10-30T07:04:41.010Z,52.12
2022-10-30T07:07:11.207Z,52.11
2022-10-30T07:09:42.215Z,52.17
2022-10-30T07:12:13.265Z,51.88
2022-10-30T07:14:52.676Z,51.03
2022-10-30T12:32:04.314Z,58.59
2022-10-30T12:34:55.572Z,58.08
2022-10-30T12:37:44.112Z,57.83
2022-10-30T12:40:20.257Z,57.67
2022-10-30T12:43:21.401Z,57.79
2022-10-30T12:45:55.716Z,57.27
2022-10-30T12:48:40.669Z,57.38
2022-10-30T12:51:23.882Z,57.04
2022-10-30T12:54:04.937Z,57.04
2022-10-30T12:56:41.294Z,57.14
2022-10-30T12:59:17.210Z,56.64
2022-10-30T13:02:23.952Z,56.51
2022-10-30T13:05:00.347Z,56.07
2022-10-30T13:07:52.449Z,55.88
2022-10-30T13:10:31.852Z,55.33
2022-10-30T13:13:11.600Z,55.17
2022-10-30T13:15:52.523Z,54.90
2022-10-30T13:18:29.598Z,55.40
2022-10-30T13:21:33.853Z,54.79
2022-10-30T13:24:22.835Z,54.65
2022-10-30T13:27:19.645Z,55.14
2022-10-30T13:29:57.846Z,54.92
2022-10-30T13:32:41.449Z,55.25
2022-10-30T13:35:31.807Z,54.92
2022-10-30T13:38:31.756Z,55.27
2022-10-30T13:41:29.549Z,54.63
2022-10-30T13:44:37.300Z,54.96
2022-10-30T13:47:43.298Z,55.05
2022-10-30T13:50:48.597Z,55.03
2022-10-30T13:53:26.168Z,54.83
2022-10-30T13:55:58.834Z,54.57
2022-10-30T13:58:42.186Z,55.24
2022-10-30T14:01:31.343Z,54.84
2022-10-30T14:04:13.551Z,54.87
2022-10-30T14:07:11.043Z,54.92
2022-10-30T14:09:54.071Z,55.24
2022-10-30T14:12:48.667Z,55.50
2022-10-30T14:15:46.971Z,55.54
2022-10-30T14:18:17.303Z,55.47
2022-10-30T14:20:49.579Z,55.91
2022-10-30T14:23:25.072Z,55.98
2022-10-30T14:26:13.593Z,56.03
2022-10-30T14:28:47.887Z,56.19
2022-10-30T14:31:34.785Z,56.02
2022-10-30T14:34:05.590Z,56.17
2022-10-30T14:36:41.875Z,56.75
2022-10-30T14:39:13.158Z,56.36
2022-10-30T14:42:21.141Z,56.71
2022-10-30T14:45:19.238Z,56.61
2022-10-30T14:48:02.545Z,56.92
2022-10-30T14:51:08.723Z,56.99
2022-10-30T14:53:57.390Z,57.24
2022-10-30T14:56:31.171Z,57.33
2022-10-30T14:59:16.528Z,57.57
2022-10-30T15:02:08.115Z,57.28
2022-10-30T15:04:41.851Z,56.60
2022-10-30T15:07:27.387Z,57.39
2022-10-30T15:10:19.070Z,57.45
2022-10-30T15:13:09.197Z,57.53
2022-10-30T15:15:40.861Z,57.64
2022-10-30T15:18:13.034Z,57.68
2022-10-30T15:20:44.067Z,57.51
2022-10-30T15:23:36.067Z,57.65
2022-10-30T15:26:10.706Z,57.81
2022-10-30T15:28:42.348Z,57.95
2022-10-30T15:31:26.380Z,57.92
2022-10-30T15:33:59.895Z,58.60
2022-10-30T15:36:44.613Z,59.84
2022-10-30T15:39:17.902Z,59.19
2022-10-30T15:42:00.015Z,59.65
2022-10-30T15:44:40.177Z,58.71
2022-10-30T15:47:20.986Z,58.48
2022-10-30T15:49:56.601Z,57.87
2022-10-30T15:52:32.080Z,57.61
2022-10-30T15:55:08.164Z,58.09
2022-10-30T15:58:03.028Z,57.47
2022-10-30T16:00:41.913Z,57.20
2022-10-30T16:03:16.064Z,57.16
2022-10-30T16:05:47.359Z,56.92
2022-10-30T16:08:29.832Z,57.28
2022-10-30T16:11:01.096Z,56.95
2022-10-30T16:13:33.943Z,57.17
2022-10-30T16:16:06.582Z,57.04
2022-10-30T16:18:38.269Z,57.01
2022-10-30T16:21:11.316Z,56.86
2022-10-30T16:23:45.198Z,56.53
2022-10-30T16:26:41.844Z,56.76
2022-10-30T16:29:21.145Z,56.60
2022-10-30T16:31:53.590Z,56.74
2022-10-30T16:34:38.101Z,56.89
2022-10-30T16:37:14.107Z,57.95
2022-10-30T16:39:45.568Z,57.44
2022-10-30T16:42:24.074Z,57.50
2022-10-30T16:45:13.756Z,57.51
2022-10-30T16:47:50.342Z,57.70
2022-10-30T16:50:23.252Z,57.22
2022-10-30T16:52:54.237Z,57.31
2022-10-30T16:55:26.308Z,56.93
2022-10-30T16:58:00.048Z,57.31
2022-10-30T17:00:36.205Z,57.87
2022-10-30T17:03:13.728Z,57.81
2022-10-30T17:05:46.470Z,57.69
2022-10-30T17:08:19.725Z,57.80
2022-10-30T17:11:06.068Z,57.48
2022-10-30T17:13:49.522Z,57.70
2022-10-30T17:16:30.444Z,57.46
2022-10-30T17:19:03.277Z,57.21
2022-10-30T17:21:42.678Z,57.04
2022-10-30T17:24:23.185Z,57.39
2022-10-30T17:27:02.406Z,57.38
2022-10-30T17:29:45.012Z,57.36
2022-10-30T17:32:21.988Z,57.07
2022-10-30T17:35:15.752Z,57.30
2022-10-30T17:37:46.826Z,57.45
2022-10-30T17:40:18.237Z,57.31
2022-10-30T17:42:51.412Z,57.50
2022-10-30T17:45:21.757Z,57.24
2022-10-30T17:47:52.454Z,57.52
2022-10-30T17:50:23.534Z,57.76
2022-10-30T17:52:53.761Z,57.36
2022-10-30T17:55:28.875Z,57.94
2022-10-30T17:57:59.155Z,57.68
2022-10-30T18:00:29.707Z,57.78
2022-10-30T18:03:00.335Z,57.69
2022-10-30T18:05:32.558Z,57.83
2022-10-30T18:08:03.550Z,57.29
2022-10-30T18:10:34.376Z,57.46
2022-10-30T18:13:04.759Z,57.79
2022-10-30T18:15:43.527Z,57.62
2022-10-30T18:18:14.231Z,57.94
2022-10-30T18:20:44.472Z,57.96
2022-10-30T18:26:19.575Z,57.72
2022-10-30T18:28:50.949Z,58.13
2022-10-30T18:31:22.516Z,57.93
2022-10-30T18:33:53.478Z,57.72
2022-10-30T18:36:26.139Z,58.15
2022-10-30T18:38:59.076Z,57.72
2022-10-30T18:41:39.836Z,58.50
2022-10-30T18:44:10.990Z,57.81
2022-10-30T18:46:41.891Z,58.33
2022-10-30T18:49:13.018Z,58.17
2022-10-30T18:51:44.139Z,58.34
2022-10-30T18:54:17.742Z,58.42
2022-10-30T18:56:47.886Z,58.40
2022-10-30T18:59:17.964Z,58.58
2022-10-30T19:01:48.725Z,58.33
2022-10-30T19:04:22.143Z,58.32
2022-10-30T19:06:53.308Z,58.07
2022-10-30T19:09:24.041Z,58.36
2022-10-30T19:11:54.144Z,58.66
2022-10-30T19:14:24.436Z,58.27
2022-10-30T19:16:55.131Z,58.64
2022-10-30T19:19:25.930Z,58.21
2022-10-30T19:21:56.205Z,58.50
2022-10-30T19:24:26.990Z,58.44
2022-10-30T19:26:57.675Z,58.93
2022-10-30T19:29:27.894Z,58.64
2022-10-30T19:31:57.923Z,58.68
2022-10-30T19:34:27.955Z,58.62
2022-10-30T19:36:58.617Z,58.83
2022-10-30T19:39:30.907Z,58.86
2022-10-30T19:42:01.162Z,58.93
2022-10-30T19:44:31.176Z,58.84
2022-10-30T19:47:01.704Z,58.83
2022-10-30T19:49:32.737Z,59.22
2022-10-30T19:52:03.017Z,59.18
2022-10-30T19:54:34.736Z,59.42
2022-10-30T19:57:05.568Z,58.87
2022-10-30T19:59:35.883Z,59.20
2022-10-30T20:02:06.173Z,59.19
2022-10-30T20:04:36.819Z,59.18
2022-10-30T20:07:07.100Z,58.92
2022-10-30T20:09:37.107Z,59.14
2022-10-30T20:12:09.000Z,59.20
2022-10-30T20:14:39.279Z,59.41
2022-10-30T20:17:10.029Z,59.22
2022-10-30T20:19:40.575Z,59.13
2022-10-30T20:22:13.805Z,59.11
2022-10-30T20:24:44.768Z,58.83
2022-10-30T20:27:15.800Z,58.91
2022-10-30T20:29:46.319Z,59.35
2022-10-30T20:32:17.082Z,59.10
2022-10-30T20:34:47.348Z,59.19
2022-10-30T20:37:17.359Z,59.29
2022-10-30T20:39:47.980Z,59.49
2022-10-30T20:42:24.930Z,59.20
2022-10-30T20:44:55.279Z,59.16
2022-10-30T20:47:25.594Z,59.64
2022-10-30T20:49:55.895Z,59.75
2022-10-30T20:52:26.398Z,59.76
2022-10-30T20:54:57.249Z,59.27
2022-10-30T20:57:27.778Z,59.54
2022-10-30T20:59:58.521Z,59.22
2022-10-30T21:02:29.011Z,59.41
2022-10-30T21:05:11.385Z,59.44
2022-10-30T21:07:48.457Z,59.61
2022-10-30T21:10:19.027Z,59.89
2022-10-30T21:12:50.137Z,59.48
2022-10-30T21:15:21.337Z,59.72
2022-10-30T21:17:51.862Z,59.43
2022-10-30T21:20:22.559Z,59.85
2022-10-30T21:22:53.633Z,59.66
2022-10-30T21:25:24.449Z,60.03
2022-10-30T21:27:55.485Z,59.67
2022-10-30T21:30:25.812Z,59.78
2022-10-30T21:32:57.070Z,60.30
2022-10-30T21:35:27.567Z,59.82
2022-10-30T21:37:57.877Z,60.33
2022-10-30T21:40:28.718Z,60.26
2022-10-30T21:43:03.122Z,60.01
2022-10-30T21:45:34.809Z,60.44
2022-10-30T21:48:05.700Z,60.28
2022-10-30T21:50:36.282Z,60.76
2022-10-30T21:53:07.058Z,60.58
2022-10-30T21:55:40.881Z,60.55
2022-10-30T21:58:11.176Z,60.19
2022-10-30T22:00:41.280Z,60.41
2022-10-30T22:03:14.013Z,60.67
2022-10-30T22:05:44.771Z,61.15
2022-10-30T22:08:15.093Z,60.93
2022-10-30T22:10:45.475Z,60.82
2022-10-30T22:13:15.588Z,60.56
2022-10-30T22:15:46.476Z,60.66
2022-10-30T22:18:17.533Z,61.07
2022-10-30T22:20:48.699Z,61.15
2022-10-30T22:23:19.501Z,61.08
2022-10-30T22:26:00.636Z,61.21
2022-10-30T22:28:33.069Z,61.69
2022-10-30T22:31:11.709Z,61.70
2022-10-30T22:33:42.641Z,61.88
2022-10-30T22:36:24.089Z,61.99
2022-10-30T22:38:58.535Z,62.19
2022-10-30T22:41:34.435Z,62.15
2022-10-30T22:44:13.226Z,62.66
2022-10-30T22:46:44.234Z,62.21
2022-10-30T22:49:14.748Z,63.00
2022-10-30T22:55:38.862Z,62.82
2022-10-30T22:58:09.659Z,62.65
2022-10-30T23:00:40.592Z,62.30
2022-10-30T23:03:10.857Z,62.55
2022-10-30T23:05:41.603Z,63.41
2022-10-30T23:08:11.887Z,63.38
2022-10-30T23:10:42.584Z,63.49
2022-10-30T23:13:12.878Z,63.55
2022-10-30T23:15:43.154Z,63.76
2022-10-30T23:18:13.982Z,64.25
2022-10-30T23:20:46.245Z,64.43
2022-10-30T23:23:17.327Z,64.15
2022-10-30T23:25:47.587Z,64.56
2022-10-30T23:28:18.109Z,64.54
2022-10-30T23:30:49.166Z,64.26
2022-10-30T23:33:19.423Z,63.71
2022-10-30T23:35:50.108Z,64.07
2022-10-30T23:38:20.881Z,63.58
2022-10-30T23:40:51.142Z,63.45
2022-10-30T23:43:21.870Z,63.70
2022-10-30T23:45:52.032Z,63.12
2022-10-30T23:48:22.906Z,63.00
2022-10-30T23:50:53.205Z,62.88
2022-10-30T23:53:23.566Z,62.83
2022-10-30T23:55:55.804Z,62.89
2022-10-30T23:58:26.125Z,62.86
